createdAt,value
2019-05-21T00:00:28.012Z,29.97
2019-05-21T00:02:57.053Z,31.30
2019-05-21T00:05:26.118Z,33.73
2019-05-21T00:07:55.522Z,34.33
2019-05-21T00:10:24.606Z,31.23
2019-05-21T00:12:53.736Z,31.00
2019-05-21T00:15:22.787Z,35.60
2019-05-21T00:17:51.826Z,35.83
2019-05-21T00:20:21.317Z,31.00
2019-05-21T00:22:50.388Z,33.60
2019-05-21T00:25:19.438Z,32.17
2019-05-21T00:27:48.840Z,33.70
2019-05-21T00:30:53.822Z,29.57
2019-05-21T00:33:58.294Z,31.90
2019-05-21T00:37:04.081Z,30.83
2019-05-21T00:40:08.820Z,34.23
2019-05-21T00:42:40.988Z,35.33
2019-05-21T00:45:12.429Z,33.77
2019-05-21T00:47:41.900Z,38.53
2019-05-21T00:50:11.280Z,32.90
2019-05-21T00:52:40.386Z,41.30
2019-05-21T00:55:09.439Z,37.73
2019-05-21T00:57:38.863Z,35.40
2019-05-21T01:00:08.438Z,39.77
2019-05-21T01:02:37.511Z,40.73
2019-05-21T01:05:07.179Z,35.17
2019-05-21T01:07:36.209Z,42.40
2019-05-21T01:10:06.083Z,37.30
2019-05-21T01:12:35.117Z,37.83
2019-05-21T01:15:04.744Z,36.43
2019-05-21T01:17:33.869Z,39.07
2019-05-21T01:20:02.935Z,41.67
2019-05-21T01:22:32.375Z,37.90
2019-05-21T01:25:01.384Z,35.10
2019-05-21T01:27:30.786Z,38.00
2019-05-21T01:29:59.825Z,36.40
2019-05-21T01:32:29.294Z,36.00
2019-05-21T01:34:58.470Z,38.07
2019-05-21T01:37:27.513Z,39.17
2019-05-21T01:39:56.610Z,42.87
2019-05-21T01:42:25.641Z,33.67
2019-05-21T01:44:54.697Z,34.97
2019-05-21T01:47:24.330Z,36.47
2019-05-21T01:49:53.365Z,39.37
2019-05-21T01:52:22.846Z,38.27
2019-05-21T01:54:52.166Z,38.07
2019-05-21T01:57:21.664Z,37.63
2019-05-21T01:59:50.824Z,34.10
2019-05-21T02:02:20.180Z,37.83
2019-05-21T02:04:49.296Z,36.03
2019-05-21T02:07:18.348Z,39.17
2019-05-21T02:10:05.411Z,32.33
2019-05-21T02:12:34.496Z,29.70
2019-05-21T02:15:03.872Z,30.80
2019-05-21T02:17:32.916Z,32.43
2019-05-21T02:20:02.271Z,35.27
2019-05-21T02:22:31.448Z,29.27
2019-05-21T02:25:00.465Z,34.70
2019-05-21T02:27:29.545Z,30.97
2019-05-21T02:29:58.611Z,38.33
2019-05-21T02:32:27.677Z,36.00
2019-05-21T02:34:56.742Z,33.03
2019-05-21T02:37:25.838Z,30.83
2019-05-21T02:39:54.848Z,33.73
2019-05-21T02:42:23.937Z,31.07
2019-05-21T02:44:54.488Z,26.33
2019-05-21T02:47:23.818Z,28.27
2019-05-21T02:49:53.260Z,27.03
2019-05-21T02:52:22.267Z,29.13
2019-05-21T02:54:51.671Z,26.00
2019-05-21T02:57:20.754Z,31.07
2019-05-21T02:59:52.101Z,28.90
2019-05-21T03:02:36.000Z,27.37
2019-05-21T03:05:06.266Z,30.43
2019-05-21T03:07:35.293Z,30.23
2019-05-21T03:10:04.847Z,24.17
2019-05-21T03:12:34.260Z,24.07
2019-05-21T03:15:03.717Z,30.03
2019-05-21T03:17:33.480Z,26.73
2019-05-21T03:20:02.564Z,26.80
2019-05-21T03:22:31.998Z,29.20
2019-05-21T03:25:02.743Z,31.13
2019-05-21T03:27:32.200Z,29.63
2019-05-21T03:30:02.650Z,29.63
2019-05-21T03:32:31.689Z,36.57
2019-05-21T03:35:00.842Z,31.20
2019-05-21T03:37:29.941Z,35.37
2019-05-21T03:39:59.447Z,35.03
2019-05-21T03:42:28.496Z,33.27
2019-05-21T03:45:00.369Z,35.53
2019-05-21T03:47:28.394Z,34.77
2019-05-21T03:49:57.875Z,35.77
2019-05-21T03:52:27.292Z,35.10
2019-05-21T03:54:56.803Z,34.63
2019-05-21T03:57:25.833Z,36.70
2019-05-21T03:59:55.256Z,33.23
2019-05-21T04:02:24.291Z,32.93
2019-05-21T04:04:53.377Z,34.80
2019-05-21T04:07:23.208Z,34.17
2019-05-21T04:09:52.246Z,31.30
2019-05-21T04:12:21.288Z,30.30
2019-05-21T04:14:54.387Z,38.43
2019-05-21T04:17:42.799Z,33.23
2019-05-21T04:20:12.413Z,37.03
2019-05-21T04:22:53.082Z,31.53
2019-05-21T04:25:23.577Z,26.17
2019-05-21T04:27:52.840Z,22.77
2019-05-21T04:30:21.900Z,24.13
2019-05-21T04:32:50.900Z,23.83
2019-05-21T04:35:20.027Z,22.53
2019-05-21T04:37:49.069Z,20.97
2019-05-21T04:40:18.792Z,24.03
2019-05-21T04:42:47.798Z,25.10
2019-05-21T04:45:16.912Z,22.73
2019-05-21T04:47:45.925Z,25.33
2019-05-21T04:50:15.122Z,26.50
2019-05-21T04:52:44.298Z,24.67
2019-05-21T04:55:13.734Z,23.77
2019-05-21T04:57:43.099Z,21.10
2019-05-21T05:00:12.711Z,19.33
2019-05-21T05:02:41.776Z,21.03
2019-05-21T05:05:11.587Z,19.30
2019-05-21T05:07:40.632Z,22.77
2019-05-21T05:10:10.234Z,18.67
2019-05-21T05:12:39.287Z,22.63
2019-05-21T05:15:08.529Z,18.37
2019-05-21T05:17:37.585Z,15.47
2019-05-21T05:20:07.181Z,14.17
2019-05-21T05:22:36.262Z,16.73
2019-05-21T05:25:05.973Z,17.67
2019-05-21T05:27:35.093Z,18.00
2019-05-21T05:30:05.160Z,16.10
2019-05-21T05:32:34.480Z,16.80
2019-05-21T05:35:03.694Z,20.63
2019-05-21T05:37:43.239Z,17.47
2019-05-21T05:40:04.408Z,20.20
2019-05-21T05:42:33.629Z,21.53
2019-05-21T05:45:02.659Z,23.50
2019-05-21T05:47:31.751Z,22.50
2019-05-21T05:50:02.582Z,34.60
2019-05-21T05:52:31.976Z,23.93
2019-05-21T05:55:01.860Z,20.93
2019-05-21T05:57:31.450Z,37.53
2019-05-21T06:00:00.910Z,21.37
2019-05-21T06:02:29.942Z,20.60
2019-05-21T06:04:59.011Z,111.33
2019-05-21T06:07:28.514Z,28.93
2019-05-21T06:09:58.449Z,22.00
2019-05-21T06:12:27.599Z,19.60
2019-05-21T06:14:57.058Z,21.43
2019-05-21T06:17:26.440Z,16.93
2019-05-21T06:19:55.782Z,23.87
2019-05-21T06:22:25.456Z,18.30
2019-05-21T06:24:54.525Z,18.67
2019-05-21T06:27:23.566Z,19.43
2019-05-21T06:29:52.702Z,21.77
2019-05-21T06:32:21.774Z,20.03
2019-05-21T06:34:50.851Z,30.03
2019-05-21T06:37:19.904Z,17.70
2019-05-21T06:39:49.246Z,19.03
2019-05-21T06:42:18.276Z,17.13
2019-05-21T06:44:47.331Z,19.93
2019-05-21T06:47:16.677Z,16.67
2019-05-21T06:49:46.273Z,14.33
2019-05-21T06:52:15.327Z,21.47
2019-05-21T06:54:44.505Z,13.70
2019-05-21T06:57:13.549Z,14.47
2019-05-21T06:59:42.723Z,15.73
2019-05-21T07:02:11.811Z,16.70
2019-05-21T07:04:40.888Z,14.83
2019-05-21T07:07:09.935Z,14.67
2019-05-21T07:09:38.988Z,14.87
2019-05-21T07:12:08.427Z,15.87
2019-05-21T07:14:37.773Z,13.00
2019-05-21T07:17:06.877Z,14.73
2019-05-21T07:19:35.970Z,12.97
2019-05-21T07:22:12.606Z,15.20
2019-05-21T07:24:36.466Z,15.60
2019-05-21T07:27:06.017Z,16.27
2019-05-21T07:29:35.074Z,21.80
2019-05-21T07:32:04.106Z,15.23
2019-05-21T07:34:33.154Z,14.53
2019-05-21T07:37:02.649Z,12.77
2019-05-21T07:39:31.696Z,15.57
2019-05-21T07:42:03.810Z,14.90
2019-05-21T07:44:32.866Z,11.83
2019-05-21T07:47:02.356Z,18.17
2019-05-21T07:49:31.673Z,17.83
2019-05-21T07:52:04.344Z,16.90
2019-05-21T07:54:33.466Z,18.70
2019-05-21T07:57:03.002Z,17.57
2019-05-21T07:59:32.092Z,17.77
2019-05-21T08:02:01.112Z,17.67
2019-05-21T08:04:30.192Z,15.30
2019-05-21T08:06:59.273Z,20.83
2019-05-21T08:09:28.352Z,15.87
2019-05-21T08:11:57.832Z,15.87
2019-05-21T08:14:27.230Z,18.70
2019-05-21T08:16:56.336Z,14.43
2019-05-21T08:19:25.465Z,23.07
2019-05-21T08:21:54.857Z,19.33
2019-05-21T08:24:24.080Z,15.70
2019-05-21T08:26:53.171Z,16.73
2019-05-21T08:29:22.641Z,18.70
2019-05-21T08:31:52.030Z,14.58
2019-05-21T08:34:21.204Z,12.30
2019-05-21T08:36:50.619Z,11.67
2019-05-21T08:39:28.463Z,10.35
2019-05-21T08:41:50.525Z,13.83
2019-05-21T08:44:19.669Z,14.60
2019-05-21T08:46:48.785Z,11.67
2019-05-21T08:49:18.160Z,10.70
2019-05-21T08:51:47.281Z,11.60
2019-05-21T08:54:18.508Z,11.27
2019-05-21T08:56:47.525Z,16.27
2019-05-21T08:59:16.572Z,10.98
2019-05-21T09:01:45.600Z,10.98
2019-05-21T09:04:15.079Z,8.98
2019-05-21T09:06:44.134Z,13.35
2019-05-21T09:09:13.873Z,10.55
2019-05-21T09:11:43.275Z,9.28
2019-05-21T09:14:12.292Z,11.33
2019-05-21T09:16:41.325Z,11.57
2019-05-21T09:19:10.376Z,12.37
2019-05-21T09:21:39.408Z,12.03
2019-05-21T09:24:08.785Z,12.43
2019-05-21T09:26:38.257Z,12.65
2019-05-21T09:29:07.285Z,14.00
2019-05-21T09:31:36.645Z,8.95
2019-05-21T09:34:06.387Z,8.73
2019-05-21T09:36:35.438Z,11.45
2019-05-21T09:39:05.667Z,10.55
2019-05-21T09:41:34.748Z,13.50
2019-05-21T09:44:03.811Z,9.95
2019-05-21T09:46:32.847Z,10.30
2019-05-21T09:49:02.196Z,24.32
2019-05-21T09:51:31.296Z,12.20
2019-05-21T09:54:00.344Z,10.50
2019-05-21T09:56:36.621Z,13.48
2019-05-21T09:59:25.567Z,10.20
2019-05-21T10:01:57.010Z,8.75
2019-05-21T10:04:26.095Z,9.50
2019-05-21T10:06:55.300Z,11.50
2019-05-21T10:09:24.424Z,10.98
2019-05-21T10:11:53.436Z,8.38
2019-05-21T10:14:22.464Z,6.45
2019-05-21T10:16:51.815Z,7.10
2019-05-21T10:19:20.861Z,6.28
2019-05-21T10:21:49.886Z,8.60
2019-05-21T10:24:18.904Z,9.00
2019-05-21T10:26:48.202Z,8.93
2019-05-21T10:29:17.631Z,10.88
2019-05-21T10:31:46.771Z,8.60
2019-05-21T10:34:16.487Z,10.43
2019-05-21T10:36:45.985Z,7.45
2019-05-21T10:39:15.196Z,9.33
2019-05-21T10:41:46.140Z,8.70
2019-05-21T10:44:15.346Z,9.13
2019-05-21T10:46:44.506Z,9.45
2019-05-21T10:49:13.904Z,10.85
2019-05-21T10:51:42.973Z,11.88
2019-05-21T10:54:12.397Z,10.82
2019-05-21T10:56:47.822Z,8.28
2019-05-21T10:59:13.206Z,9.85
2019-05-21T11:02:07.071Z,9.15
2019-05-21T11:04:58.371Z,8.58
2019-05-21T11:07:28.133Z,8.28
2019-05-21T11:09:57.520Z,12.50
2019-05-21T11:12:26.993Z,8.18
2019-05-21T11:14:56.021Z,9.80
2019-05-21T11:17:25.085Z,7.42
2019-05-21T11:19:54.170Z,7.95
2019-05-21T11:22:23.772Z,7.17
2019-05-21T11:24:52.835Z,9.68
2019-05-21T11:27:22.806Z,7.62
2019-05-21T11:29:52.029Z,8.38
2019-05-21T11:32:21.573Z,9.33
2019-05-21T11:34:50.859Z,9.50
2019-05-21T11:37:20.509Z,7.05
2019-05-21T11:39:49.882Z,6.97
2019-05-21T11:42:19.004Z,7.50
2019-05-21T11:44:48.039Z,6.08
2019-05-21T11:47:17.176Z,5.65
2019-05-21T11:49:46.244Z,6.60
2019-05-21T11:52:15.305Z,13.00
2019-05-21T11:54:44.747Z,8.05
2019-05-21T11:57:13.917Z,6.72
2019-05-21T11:59:42.960Z,7.72
2019-05-21T12:02:12.656Z,9.18
2019-05-21T12:04:41.871Z,10.88
2019-05-21T12:07:10.917Z,10.05
2019-05-21T12:09:40.395Z,6.53
2019-05-21T12:12:09.625Z,8.65
2019-05-21T12:14:38.979Z,6.30
2019-05-21T12:17:08.082Z,6.83
2019-05-21T12:19:37.176Z,5.10
2019-05-21T12:22:06.740Z,10.15
2019-05-21T12:24:35.849Z,4.50
2019-05-21T12:27:05.076Z,5.72
2019-05-21T12:29:34.537Z,5.20
2019-05-21T12:32:04.195Z,6.30
2019-05-21T12:34:33.545Z,5.03
2019-05-21T12:37:02.597Z,4.60
2019-05-21T12:39:31.641Z,6.05
2019-05-21T12:42:01.237Z,5.92
2019-05-21T12:44:30.290Z,9.30
2019-05-21T12:46:59.702Z,7.90
2019-05-21T12:49:28.783Z,5.95
2019-05-21T12:51:57.833Z,6.22
2019-05-21T12:54:27.580Z,10.38
2019-05-21T12:56:57.394Z,6.62
2019-05-21T12:59:26.423Z,6.70
2019-05-21T13:01:56.412Z,9.55
2019-05-21T13:04:25.470Z,6.53
2019-05-21T13:06:54.713Z,8.30
2019-05-21T13:09:33.001Z,6.62
2019-05-21T13:11:54.923Z,6.00
2019-05-21T13:14:23.959Z,5.67
2019-05-21T13:16:52.981Z,6.22
2019-05-21T13:19:22.028Z,6.40
2019-05-21T13:21:51.056Z,6.58
2019-05-21T13:24:20.330Z,5.35
2019-05-21T13:26:49.794Z,5.97
2019-05-21T13:29:19.198Z,5.20
2019-05-21T13:31:48.185Z,5.65
2019-05-21T13:34:17.229Z,11.57
2019-05-21T13:36:46.984Z,8.05
2019-05-21T13:39:16.060Z,7.08
2019-05-21T13:41:45.377Z,6.53
2019-05-21T13:44:14.550Z,8.13
2019-05-21T13:46:43.969Z,7.90
2019-05-21T13:49:13.491Z,9.55
2019-05-21T13:51:42.658Z,9.13
2019-05-21T13:54:12.012Z,7.28
2019-05-21T13:56:41.106Z,8.33
2019-05-21T13:59:10.271Z,11.28
2019-05-21T14:01:41.552Z,6.80
2019-05-21T14:04:11.037Z,9.30
2019-05-21T14:06:40.427Z,12.95
2019-05-21T14:09:10.369Z,14.60
2019-05-21T14:11:39.449Z,13.00
2019-05-21T14:14:08.507Z,6.55
2019-05-21T14:16:37.837Z,6.75
2019-05-21T14:19:06.869Z,8.18
2019-05-21T14:21:35.876Z,7.95
2019-05-21T14:24:05.426Z,7.97
2019-05-21T14:26:34.474Z,7.08
2019-05-21T14:29:03.569Z,7.03
2019-05-21T14:31:32.685Z,6.00
2019-05-21T14:34:02.512Z,5.75
2019-05-21T14:36:31.586Z,8.88
2019-05-21T14:39:00.964Z,8.78
2019-05-21T14:41:30.032Z,8.85
2019-05-21T14:43:59.491Z,9.83
2019-05-21T14:46:28.822Z,7.67
2019-05-21T14:48:57.862Z,8.43
2019-05-21T14:51:27.317Z,6.53
2019-05-21T14:54:03.181Z,5.50
2019-05-21T14:56:32.551Z,5.87
2019-05-21T14:59:01.558Z,10.13
2019-05-21T15:01:30.666Z,5.45
2019-05-21T15:04:00.136Z,7.72
2019-05-21T15:06:29.207Z,5.83
2019-05-21T15:08:58.640Z,5.67
2019-05-21T15:11:27.711Z,6.20
2019-05-21T15:13:56.815Z,6.08
2019-05-21T15:16:25.896Z,7.80
2019-05-21T15:18:55.326Z,4.35
2019-05-21T15:21:35.282Z,6.42
2019-05-21T15:24:04.904Z,5.47
2019-05-21T15:26:34.388Z,7.87
2019-05-21T15:29:03.446Z,10.80
2019-05-21T15:31:32.532Z,9.60
2019-05-21T15:34:01.600Z,6.17
2019-05-21T15:36:30.720Z,4.97
2019-05-21T15:38:59.754Z,8.00
2019-05-21T15:41:28.878Z,7.78
2019-05-21T15:43:58.559Z,8.75
2019-05-21T15:46:27.726Z,4.70
2019-05-21T15:48:57.089Z,4.87
2019-05-21T15:51:26.126Z,5.67
2019-05-21T15:53:55.198Z,6.25
2019-05-21T15:56:24.502Z,5.70
2019-05-21T15:58:53.540Z,6.22
2019-05-21T16:01:24.211Z,6.03
2019-05-21T16:03:53.260Z,5.90
2019-05-21T16:06:22.393Z,6.22
2019-05-21T16:08:51.873Z,5.53
2019-05-21T16:11:28.461Z,5.47
2019-05-21T16:13:52.067Z,6.00
2019-05-21T16:16:23.485Z,4.47
2019-05-21T16:18:52.242Z,5.05
2019-05-21T16:21:21.378Z,8.93
2019-05-21T16:23:50.404Z,5.50
2019-05-21T16:26:19.479Z,5.42
2019-05-21T16:28:48.483Z,4.10
2019-05-21T16:31:17.614Z,4.78
2019-05-21T16:33:46.648Z,6.30
2019-05-21T16:36:15.685Z,5.60
2019-05-21T16:38:45.046Z,5.45
2019-05-21T16:41:14.140Z,6.35
2019-05-21T16:43:43.206Z,8.03
2019-05-21T16:46:12.448Z,3.83
2019-05-21T16:48:41.589Z,4.30
2019-05-21T16:51:11.373Z,5.53
2019-05-21T16:53:40.746Z,4.35
2019-05-21T16:56:09.762Z,5.00
2019-05-21T16:58:38.832Z,5.30
2019-05-21T17:01:07.941Z,5.85
2019-05-21T17:03:37.673Z,4.25
2019-05-21T17:06:08.037Z,5.00
2019-05-21T17:08:37.151Z,9.25
2019-05-21T17:11:06.368Z,5.67
2019-05-21T17:13:35.632Z,6.20
2019-05-21T17:16:05.784Z,8.20
2019-05-21T17:18:34.926Z,6.90
2019-05-21T17:21:08.550Z,7.95
2019-05-21T17:23:38.773Z,7.60
2019-05-21T17:26:08.570Z,8.35
2019-05-21T17:28:38.127Z,6.67
2019-05-21T17:31:07.277Z,7.80
2019-05-21T17:33:36.323Z,6.72
2019-05-21T17:36:05.471Z,6.30
2019-05-21T17:38:35.344Z,7.40
2019-05-21T17:41:04.369Z,6.03
2019-05-21T17:43:33.543Z,6.30
2019-05-21T17:46:02.565Z,7.17
2019-05-21T17:48:31.749Z,8.35
2019-05-21T17:51:01.209Z,6.05
2019-05-21T17:53:30.296Z,6.20
2019-05-21T17:55:59.680Z,8.08
2019-05-21T17:58:28.994Z,10.13
2019-05-21T18:01:01.158Z,11.85
2019-05-21T18:03:31.595Z,11.55
2019-05-21T18:06:02.342Z,13.58
2019-05-21T18:08:32.315Z,15.32
2019-05-21T18:11:02.065Z,14.98
2019-05-21T18:13:31.710Z,14.90
2019-05-21T18:16:00.975Z,17.45
2019-05-21T18:18:30.200Z,14.47
2019-05-21T18:20:59.797Z,16.75
2019-05-21T18:23:29.305Z,14.80
2019-05-21T18:25:58.719Z,14.35
2019-05-21T18:28:27.901Z,14.63
2019-05-21T18:30:56.919Z,16.67
2019-05-21T18:33:26.556Z,20.23
2019-05-21T18:35:55.626Z,16.00
2019-05-21T18:38:24.681Z,16.42
2019-05-21T18:40:54.165Z,18.52
2019-05-21T18:43:23.419Z,18.60
2019-05-21T18:45:52.518Z,19.12
2019-05-21T18:48:21.558Z,17.32
2019-05-21T18:50:50.703Z,17.98
2019-05-21T18:53:20.130Z,19.25
2019-05-21T18:55:49.585Z,18.90
2019-05-21T18:58:19.573Z,17.65
2019-05-21T19:00:48.653Z,16.77
2019-05-21T19:03:25.454Z,14.85
2019-05-21T19:05:48.650Z,16.40
2019-05-21T19:08:17.710Z,16.02
2019-05-21T19:10:46.943Z,15.05
2019-05-21T19:13:16.243Z,16.45
2019-05-21T19:15:45.314Z,21.82
2019-05-21T19:18:14.347Z,18.35
2019-05-21T19:20:44.065Z,19.73
2019-05-21T19:23:13.150Z,17.98
2019-05-21T19:25:42.180Z,18.23
2019-05-21T19:28:11.223Z,17.40
2019-05-21T19:30:40.273Z,18.52
2019-05-21T19:33:09.310Z,19.42
2019-05-21T19:35:38.385Z,18.67
2019-05-21T19:38:07.441Z,18.37
2019-05-21T19:40:36.488Z,21.30
2019-05-21T19:43:05.515Z,18.10
2019-05-21T19:45:34.560Z,21.17
2019-05-21T19:48:03.658Z,17.73
2019-05-21T19:50:32.713Z,19.70
2019-05-21T19:53:01.882Z,20.10
2019-05-21T19:55:31.022Z,18.40
2019-05-21T19:58:00.142Z,22.87
2019-05-21T20:00:30.956Z,20.90
2019-05-21T20:03:00.046Z,18.53
2019-05-21T20:05:29.136Z,19.37
2019-05-21T20:07:58.211Z,21.00
2019-05-21T20:10:27.732Z,19.07
2019-05-21T20:12:57.244Z,20.80
2019-05-21T20:15:26.584Z,19.47
2019-05-21T20:18:07.057Z,24.33
2019-05-21T20:20:27.628Z,26.93
2019-05-21T20:22:57.948Z,20.17
2019-05-21T20:25:27.945Z,21.47
2019-05-21T20:27:57.424Z,22.60
2019-05-21T20:30:26.484Z,25.57
2019-05-21T20:32:56.303Z,23.10
2019-05-21T20:35:28.866Z,24.27
2019-05-21T20:37:58.192Z,23.17
2019-05-21T20:40:27.944Z,27.83
2019-05-21T20:42:57.393Z,25.57
2019-05-21T20:45:27.579Z,29.17
2019-05-21T20:47:57.398Z,27.60
2019-05-21T20:50:26.640Z,28.60
2019-05-21T20:52:56.577Z,30.47
2019-05-21T20:55:25.845Z,27.30
2019-05-21T20:57:55.547Z,24.30
2019-05-21T21:00:30.372Z,26.17
2019-05-21T21:02:59.795Z,30.33
2019-05-21T21:05:28.969Z,27.07
2019-05-21T21:07:58.355Z,27.23
2019-05-21T21:10:27.760Z,23.93
2019-05-21T21:12:56.818Z,25.97
2019-05-21T21:15:26.202Z,28.40
2019-05-21T21:17:55.260Z,29.00
2019-05-21T21:20:24.997Z,28.40
2019-05-21T21:22:54.545Z,31.40
2019-05-21T21:25:24.827Z,29.77
2019-05-21T21:27:53.963Z,31.00
2019-05-21T21:30:23.585Z,33.17
2019-05-21T21:32:53.687Z,33.30
2019-05-21T21:35:22.896Z,29.97
2019-05-21T21:37:52.473Z,30.33
2019-05-21T21:40:22.190Z,33.97
2019-05-21T21:42:51.544Z,34.20
2019-05-21T21:45:20.962Z,35.83
2019-05-21T21:47:50.994Z,36.20
2019-05-21T21:50:21.890Z,35.47
2019-05-21T21:52:51.566Z,34.67
2019-05-21T21:55:20.979Z,37.27
2019-05-21T21:57:50.146Z,40.17
2019-05-21T22:01:19.611Z,36.03
2019-05-21T22:03:48.969Z,36.47
2019-05-21T22:06:19.158Z,33.50
2019-05-21T22:08:48.608Z,38.53
2019-05-21T22:11:18.578Z,38.43
2019-05-21T22:13:48.405Z,38.87
2019-05-21T22:16:17.636Z,37.17
2019-05-21T22:18:47.514Z,38.00
2019-05-21T22:21:17.127Z,39.27
2019-05-21T22:23:46.495Z,42.27
2019-05-21T22:26:15.626Z,42.67
2019-05-21T22:28:44.670Z,44.90
2019-05-21T22:31:13.688Z,44.87
2019-05-21T22:33:42.828Z,41.13
2019-05-21T22:36:12.447Z,41.23
2019-05-21T22:38:41.494Z,36.07
2019-05-21T22:41:11.414Z,38.57
2019-05-21T22:43:40.890Z,39.13
2019-05-21T22:46:10.147Z,34.83
2019-05-21T22:48:39.177Z,36.53
2019-05-21T22:51:08.392Z,35.27
2019-05-21T22:53:37.395Z,38.83
2019-05-21T22:56:06.616Z,39.97
2019-05-21T22:58:35.706Z,38.13
2019-05-21T23:01:07.773Z,40.20
2019-05-21T23:03:37.203Z,42.60
2019-05-21T23:06:06.576Z,39.70
2019-05-21T23:08:36.719Z,38.70
2019-05-21T23:11:06.219Z,39.53
2019-05-21T23:13:35.866Z,41.17
2019-05-21T23:16:06.296Z,38.60
2019-05-21T23:18:35.468Z,40.93
2019-05-21T23:21:08.459Z,38.27
2019-05-21T23:23:37.822Z,39.80
2019-05-21T23:26:07.732Z,39.80
2019-05-21T23:28:36.838Z,41.63
2019-05-21T23:31:06.126Z,40.47
2019-05-21T23:33:36.513Z,43.27
2019-05-21T23:36:05.685Z,39.83
2019-05-21T23:38:36.675Z,37.23
2019-05-21T23:41:06.085Z,40.87
2019-05-21T23:43:35.852Z,38.43
2019-05-21T23:46:07.477Z,39.00
2019-05-21T23:48:37.207Z,37.70
2019-05-21T23:51:06.294Z,39.07
2019-05-21T23:53:35.323Z,39.90
2019-05-21T23:56:04.423Z,38.27
2019-05-21T23:58:33.580Z,43.63
